createdAt,value
2018-07-10T00:02:49.367Z,18.93
2018-07-10T00:08:33.861Z,16.13
2018-07-10T00:11:21.741Z,13.57
2018-07-10T00:13:51.799Z,14.53
2018-07-10T00:16:22.203Z,12.40
2018-07-10T00:18:53.035Z,9.30
2018-07-10T00:21:23.334Z,7.43
2018-07-10T00:23:53.400Z,4.87
2018-07-10T00:26:23.607Z,4.70
2018-07-10T00:28:53.752Z,4.43
2018-07-10T00:31:24.012Z,3.80
2018-07-10T00:33:54.379Z,3.10
2018-07-10T00:36:24.705Z,2.40
2018-07-10T00:39:01.258Z,2.60
2018-07-10T00:41:32.842Z,2.37
2018-07-10T00:44:04.164Z,2.30
2018-07-10T00:46:36.687Z,2.43
2018-07-10T00:49:06.951Z,2.60
2018-07-10T00:51:38.416Z,2.13
2018-07-10T00:54:08.819Z,2.47
2018-07-10T00:56:39.144Z,2.10
2018-07-10T00:59:09.203Z,1.83
2018-07-10T01:01:39.510Z,2.00
2018-07-10T01:04:09.541Z,2.00
2018-07-10T01:06:39.576Z,2.00
2018-07-10T01:09:14.382Z,1.97
2018-07-10T01:11:44.675Z,1.87
2018-07-10T01:14:14.670Z,1.70
2018-07-10T01:16:44.772Z,1.77
2018-07-10T01:19:17.271Z,1.87
2018-07-10T01:21:48.450Z,1.70
2018-07-10T01:24:19.758Z,4.33
2018-07-10T01:26:51.016Z,4.90
2018-07-10T01:29:26.708Z,1.90
2018-07-10T01:31:57.179Z,2.23
2018-07-10T01:34:27.670Z,2.20
2018-07-10T01:36:59.242Z,2.83
2018-07-10T01:39:30.029Z,4.37
2018-07-10T01:42:00.036Z,3.33
2018-07-10T01:44:30.349Z,2.77
2018-07-10T01:47:00.543Z,3.03
2018-07-10T01:49:30.626Z,2.50
2018-07-10T01:52:01.079Z,2.97
2018-07-10T01:54:31.469Z,2.80
2018-07-10T01:57:01.715Z,4.70
2018-07-10T01:59:31.965Z,5.90
2018-07-10T02:02:01.996Z,12.43
2018-07-10T02:04:33.101Z,13.27
2018-07-10T02:07:08.366Z,9.73
2018-07-10T02:09:39.010Z,6.30
2018-07-10T02:12:09.928Z,5.37
2018-07-10T02:14:40.189Z,3.30
2018-07-10T02:17:10.575Z,3.83
2018-07-10T02:19:40.630Z,5.57
2018-07-10T02:22:10.819Z,5.00
2018-07-10T02:24:41.601Z,5.13
2018-07-10T02:27:11.964Z,5.33
2018-07-10T02:29:42.426Z,6.70
2018-07-10T02:32:12.566Z,5.83
2018-07-10T02:34:42.625Z,5.70
2018-07-10T02:37:12.827Z,6.10
2018-07-10T02:39:42.894Z,6.33
2018-07-10T02:42:12.911Z,6.07
2018-07-10T02:44:43.622Z,6.23
2018-07-10T02:47:13.611Z,6.70
2018-07-10T02:49:44.726Z,5.50
2018-07-10T02:52:14.743Z,5.63
2018-07-10T02:54:45.498Z,5.43
2018-07-10T02:57:15.582Z,5.87
2018-07-10T02:59:46.815Z,8.63
2018-07-10T03:02:22.520Z,6.57
2018-07-10T03:04:58.050Z,8.30
2018-07-10T03:07:28.488Z,7.47
2018-07-10T03:09:59.219Z,6.80
2018-07-10T03:12:31.265Z,5.93
2018-07-10T03:15:10.557Z,6.40
2018-07-10T03:17:40.639Z,6.43
2018-07-10T03:20:11.158Z,6.90
2018-07-10T03:22:41.359Z,7.13
2018-07-10T03:25:11.834Z,6.23
2018-07-10T03:27:42.217Z,5.80
2018-07-10T03:30:12.656Z,5.97
2018-07-10T03:32:42.633Z,6.50
2018-07-10T03:35:12.793Z,12.90
2018-07-10T03:37:43.293Z,8.77
2018-07-10T03:40:13.454Z,7.10
2018-07-10T03:42:43.603Z,6.07
2018-07-10T03:45:14.033Z,6.03
2018-07-10T03:50:13.005Z,6.45
2018-07-10T03:52:44.223Z,6.80
2018-07-10T03:55:15.474Z,5.73
2018-07-10T03:57:45.633Z,6.30
2018-07-10T04:00:16.517Z,5.13
2018-07-10T04:02:49.983Z,5.00
2018-07-10T04:05:22.671Z,4.80
2018-07-10T04:07:55.190Z,5.23
2018-07-10T04:10:27.606Z,4.97
2018-07-10T04:12:58.509Z,5.33
2018-07-10T04:15:28.589Z,6.80
2018-07-10T04:18:07.063Z,6.97
2018-07-10T04:21:45.726Z,10.60
2018-07-10T04:24:19.033Z,6.00
2018-07-10T04:27:26.204Z,7.10
2018-07-10T04:30:10.240Z,8.10
2018-07-10T04:32:41.534Z,8.70
2018-07-10T04:35:14.500Z,6.83
2018-07-10T04:37:49.953Z,5.40
2018-07-10T04:40:21.077Z,7.43
2018-07-10T04:43:01.511Z,6.37
2018-07-10T04:45:40.913Z,8.07
2018-07-10T04:48:23.249Z,6.10
2018-07-10T04:50:54.483Z,6.33
2018-07-10T04:53:31.552Z,5.87
2018-07-10T04:56:02.103Z,5.87
2018-07-10T04:58:32.150Z,5.30
2018-07-10T05:01:03.758Z,5.43
2018-07-10T05:03:34.155Z,4.90
2018-07-10T05:06:07.155Z,5.67
2018-07-10T05:08:37.083Z,5.03
2018-07-10T05:11:07.342Z,5.10
2018-07-10T05:13:37.758Z,4.87
2018-07-10T05:16:08.490Z,5.40
2018-07-10T05:18:39.030Z,5.30
2018-07-10T05:21:15.418Z,5.60
2018-07-10T05:23:46.063Z,5.33
2018-07-10T05:26:17.282Z,6.17
2018-07-10T05:28:51.475Z,5.33
2018-07-10T05:31:22.002Z,5.57
2018-07-10T05:33:52.904Z,6.90
2018-07-10T05:36:24.406Z,7.83
2018-07-10T05:39:11.674Z,8.30
2018-07-10T05:41:47.320Z,7.53
2018-07-10T05:44:20.920Z,8.47
2018-07-10T05:46:52.091Z,8.37
2018-07-10T05:49:22.506Z,10.53
2018-07-10T05:51:53.343Z,12.13
2018-07-10T05:54:24.191Z,11.20
2018-07-10T05:56:54.429Z,11.97
2018-07-10T05:59:24.966Z,9.70
2018-07-10T06:01:56.070Z,10.63
2018-07-10T06:04:26.536Z,9.60
2018-07-10T06:07:03.505Z,8.97
2018-07-10T06:09:33.878Z,9.50
2018-07-10T06:12:04.825Z,9.50
2018-07-10T06:14:34.902Z,9.57
2018-07-10T06:17:05.102Z,9.37
2018-07-10T06:19:35.150Z,9.20
2018-07-10T06:22:05.317Z,8.10
2018-07-10T06:24:35.483Z,9.23
2018-07-10T06:44:01.004Z,8.10
2018-07-10T06:46:40.181Z,6.90
2018-07-10T06:49:24.287Z,7.67
2018-07-10T06:52:17.236Z,7.63
2018-07-10T06:55:01.477Z,7.93
2018-07-10T06:57:36.615Z,7.80
2018-07-10T07:00:09.708Z,7.83
2018-07-10T07:02:40.335Z,9.80
2018-07-10T07:05:10.632Z,9.47
2018-07-10T07:07:40.880Z,11.70
2018-07-10T07:10:12.308Z,11.20
2018-07-10T07:12:43.089Z,11.53
2018-07-10T07:15:14.824Z,12.80
2018-07-10T07:17:47.552Z,14.83
2018-07-10T07:20:17.668Z,14.83
2018-07-10T07:22:47.926Z,14.40
2018-07-10T07:25:18.300Z,14.33
2018-07-10T07:27:48.323Z,14.13
2018-07-10T07:30:18.310Z,12.73
2018-07-10T07:32:49.242Z,14.57
2018-07-10T07:35:19.310Z,14.97
2018-07-10T07:37:49.450Z,16.03
2018-07-10T07:40:19.626Z,18.87
2018-07-10T07:42:49.582Z,18.90
2018-07-10T07:45:19.986Z,16.63
2018-07-10T07:47:50.443Z,15.13
2018-07-10T07:50:21.696Z,14.07
2018-07-10T07:52:51.818Z,14.57
2018-07-10T07:55:21.972Z,14.83
2018-07-10T07:57:51.935Z,14.47
2018-07-10T08:00:22.028Z,14.43
2018-07-10T08:02:52.777Z,14.10
2018-07-10T08:05:22.927Z,12.30
2018-07-10T08:07:52.969Z,12.37
2018-07-10T08:10:22.956Z,13.73
2018-07-10T08:12:53.182Z,13.00
2018-07-10T08:15:24.012Z,13.20
2018-07-10T08:17:54.594Z,12.33
2018-07-10T08:20:25.098Z,11.93
2018-07-10T08:22:55.327Z,10.80
2018-07-10T08:25:26.283Z,11.43
2018-07-10T08:27:56.768Z,10.47
2018-07-10T08:30:27.579Z,9.73
2018-07-10T08:32:58.211Z,9.93
2018-07-10T08:35:28.539Z,9.43
2018-07-10T08:37:59.205Z,9.20
2018-07-10T08:40:29.710Z,8.77
2018-07-10T08:43:00.267Z,9.70
2018-07-10T08:45:30.730Z,10.37
2018-07-10T08:48:02.410Z,9.67
2018-07-10T08:50:33.096Z,10.03
2018-07-10T08:53:03.390Z,10.13
2018-07-10T08:55:33.614Z,9.10
2018-07-10T08:58:04.000Z,9.47
2018-07-10T09:00:34.241Z,9.40
2018-07-10T09:03:04.532Z,8.60
2018-07-10T09:05:34.875Z,9.53
2018-07-10T09:08:04.964Z,9.37
2018-07-10T09:10:35.316Z,8.80
2018-07-10T09:13:05.799Z,8.40
2018-07-10T09:15:35.982Z,9.90
2018-07-10T09:18:06.812Z,9.77
2018-07-10T09:20:41.856Z,9.10
2018-07-10T09:23:12.385Z,9.20
2018-07-10T09:25:42.628Z,9.17
2018-07-10T09:28:13.415Z,9.80
2018-07-10T09:30:44.013Z,8.53
2018-07-10T09:33:14.434Z,9.10
2018-07-10T09:35:44.734Z,8.50
2018-07-10T09:38:15.016Z,8.17
2018-07-10T09:40:46.251Z,7.10
2018-07-10T09:43:16.762Z,6.80
2018-07-10T09:45:46.958Z,7.23
2018-07-10T09:48:17.159Z,7.37
2018-07-10T09:50:47.362Z,6.43
2018-07-10T09:53:17.519Z,6.60
2018-07-10T09:55:47.684Z,6.20
2018-07-10T09:58:17.879Z,7.23
2018-07-10T10:00:53.993Z,6.97
2018-07-10T10:03:25.105Z,6.53
2018-07-10T10:05:55.439Z,6.90
2018-07-10T10:08:25.863Z,7.00
2018-07-10T10:10:56.062Z,7.23
2018-07-10T10:13:26.462Z,6.37
2018-07-10T10:15:56.722Z,6.40
2018-07-10T10:18:28.108Z,6.70
2018-07-10T10:20:58.834Z,6.70
2018-07-10T10:23:29.074Z,7.00
2018-07-10T10:25:59.334Z,6.73
2018-07-10T10:28:29.752Z,6.40
2018-07-10T10:31:00.241Z,6.73
2018-07-10T10:33:30.570Z,6.77
2018-07-10T10:36:01.415Z,6.97
2018-07-10T10:38:31.828Z,6.63
2018-07-10T10:41:03.534Z,6.40
2018-07-10T10:43:33.889Z,6.97
2018-07-10T10:46:04.170Z,7.03
2018-07-10T10:48:35.387Z,6.57
2018-07-10T10:51:05.621Z,6.80
2018-07-10T10:53:35.879Z,7.60
2018-07-10T10:56:06.216Z,8.10
2018-07-10T10:58:36.924Z,6.60
2018-07-10T11:01:07.410Z,6.90
2018-07-10T11:03:37.647Z,7.40
2018-07-10T11:06:07.906Z,8.80
2018-07-10T11:08:37.979Z,7.13
2018-07-10T11:11:08.289Z,6.97
2018-07-10T11:13:38.887Z,7.63
2018-07-10T11:16:09.252Z,7.37
2018-07-10T11:18:51.042Z,6.90
2018-07-10T11:21:28.786Z,7.30
2018-07-10T11:23:59.779Z,8.40
2018-07-10T11:26:37.283Z,8.30
2018-07-10T11:29:08.098Z,8.23
2018-07-10T11:31:38.879Z,8.63
2018-07-10T11:34:09.304Z,8.17
2018-07-10T11:36:39.546Z,7.13
2018-07-10T11:39:12.347Z,8.30
2018-07-10T11:41:50.601Z,7.27
2018-07-10T11:44:21.238Z,7.13
2018-07-10T11:46:51.478Z,6.70
2018-07-10T11:49:21.693Z,6.63
2018-07-10T11:51:52.214Z,9.47
2018-07-10T11:54:22.938Z,6.37
2018-07-10T11:56:53.650Z,6.37
2018-07-10T11:59:23.874Z,5.50
2018-07-10T12:01:54.232Z,6.43
2018-07-10T12:04:24.994Z,6.23
2018-07-10T12:06:54.982Z,5.70
2018-07-10T12:09:24.952Z,7.13
2018-07-10T12:11:55.192Z,5.60
2018-07-10T12:14:25.590Z,6.37
2018-07-10T12:16:56.014Z,6.73
2018-07-10T12:19:26.330Z,7.00
2018-07-10T12:21:56.765Z,6.63
2018-07-10T12:24:26.975Z,7.03
2018-07-10T12:26:57.404Z,6.60
2018-07-10T12:29:27.993Z,7.20
2018-07-10T12:31:59.111Z,22.80
2018-07-10T12:34:29.437Z,6.40
2018-07-10T12:36:59.682Z,6.17
2018-07-10T12:39:30.210Z,7.03
2018-07-10T12:42:00.463Z,6.97
2018-07-10T12:44:30.978Z,7.17
2018-07-10T12:47:01.382Z,7.00
2018-07-10T12:49:31.755Z,7.10
2018-07-10T12:52:02.056Z,6.97
2018-07-10T12:54:32.420Z,6.57
2018-07-10T12:57:02.959Z,6.63
2018-07-10T12:59:33.416Z,6.27
2018-07-10T13:02:03.720Z,6.17
2018-07-10T13:04:33.961Z,6.30
2018-07-10T13:07:09.264Z,6.53
2018-07-10T13:09:39.530Z,6.13
2018-07-10T13:12:09.574Z,6.67
2018-07-10T13:14:45.587Z,6.00
2018-07-10T13:17:15.711Z,6.17
2018-07-10T13:19:45.795Z,5.60
2018-07-10T13:22:16.506Z,5.97
2018-07-10T13:24:46.991Z,6.23
2018-07-10T13:27:17.021Z,5.60
2018-07-10T13:29:47.171Z,5.60
2018-07-10T13:32:17.374Z,6.47
2018-07-10T13:34:47.892Z,5.90
2018-07-10T13:37:18.511Z,5.80
2018-07-10T13:39:48.878Z,5.97
2018-07-10T13:42:19.092Z,5.80
2018-07-10T13:44:49.630Z,6.03
2018-07-10T13:47:20.188Z,6.03
2018-07-10T13:49:50.296Z,6.20
2018-07-10T13:52:20.385Z,6.63
2018-07-10T13:54:50.395Z,5.77
2018-07-10T13:57:20.532Z,6.03
2018-07-10T13:59:50.750Z,5.83
2018-07-10T14:02:21.184Z,6.40
2018-07-10T14:04:51.662Z,5.33
2018-07-10T14:07:21.791Z,6.57
2018-07-10T14:09:51.706Z,6.20
2018-07-10T14:12:22.131Z,5.60
2018-07-10T14:14:52.191Z,5.70
2018-07-10T14:17:22.436Z,6.23
2018-07-10T14:19:52.810Z,5.23
2018-07-10T14:22:25.536Z,5.87
2018-07-10T14:24:55.643Z,5.40
2018-07-10T14:27:25.855Z,5.47
2018-07-10T14:29:56.103Z,5.80
2018-07-10T14:32:26.136Z,6.50
2018-07-10T14:34:56.415Z,5.83
2018-07-10T14:37:26.438Z,6.20
2018-07-10T14:39:58.464Z,7.07
2018-07-10T14:42:29.258Z,6.03
2018-07-10T14:45:03.740Z,5.60
2018-07-10T14:47:34.279Z,6.23
2018-07-10T14:50:05.041Z,5.13
2018-07-10T14:52:35.364Z,5.40
2018-07-10T14:55:05.358Z,5.40
2018-07-10T14:57:35.547Z,5.43
2018-07-10T15:00:06.314Z,4.80
2018-07-10T15:02:36.922Z,5.93
2018-07-10T15:05:07.390Z,5.47
2018-07-10T15:07:38.064Z,6.23
2018-07-10T15:10:08.227Z,5.83
2018-07-10T15:12:38.833Z,5.80
2018-07-10T15:15:09.392Z,6.17
2018-07-10T15:17:44.663Z,6.37
2018-07-10T15:20:14.771Z,6.37
2018-07-10T15:22:45.080Z,6.10
2018-07-10T15:25:15.184Z,6.00
2018-07-10T15:27:45.429Z,5.97
2018-07-10T15:30:15.476Z,5.80
2018-07-10T15:32:45.873Z,5.10
2018-07-10T15:35:16.044Z,5.53
2018-07-10T15:37:46.371Z,5.30
2018-07-10T15:40:16.426Z,5.10
2018-07-10T15:42:46.831Z,5.67
2018-07-10T15:45:17.226Z,4.90
2018-07-10T15:47:47.609Z,5.50
2018-07-10T15:50:17.650Z,4.90
2018-07-10T15:52:47.731Z,5.07
2018-07-10T15:55:18.142Z,5.10
2018-07-10T15:57:48.338Z,4.60
2018-07-10T16:00:18.904Z,5.03
2018-07-10T16:02:49.750Z,5.10
2018-07-10T16:05:20.394Z,5.13
2018-07-10T16:07:50.630Z,4.97
2018-07-10T16:10:20.502Z,5.20
2018-07-10T16:12:50.805Z,4.70
2018-07-10T16:15:20.849Z,5.00
2018-07-10T16:17:50.899Z,5.43
2018-07-10T16:20:21.310Z,5.03
2018-07-10T16:22:51.634Z,4.77
2018-07-10T16:25:33.301Z,5.10
2018-07-10T16:28:11.079Z,6.50
2018-07-10T16:30:41.426Z,5.13
2018-07-10T16:33:13.870Z,4.67
2018-07-10T16:35:43.990Z,4.63
2018-07-10T16:38:14.710Z,4.80
2018-07-10T16:40:44.939Z,5.00
2018-07-10T16:43:20.243Z,4.83
2018-07-10T16:45:50.562Z,4.73
2018-07-10T16:48:24.576Z,5.00
2018-07-10T16:51:02.261Z,4.70
2018-07-10T16:53:34.136Z,8.10
2018-07-10T16:56:04.297Z,5.20
2018-07-10T16:58:38.419Z,5.27
2018-07-10T17:01:08.971Z,5.63
2018-07-10T17:03:39.293Z,5.33
2018-07-10T17:06:09.656Z,5.47
2018-07-10T17:08:39.601Z,4.90
2018-07-10T17:11:10.111Z,6.30
2018-07-10T17:13:40.422Z,5.80
2018-07-10T17:16:10.460Z,5.93
2018-07-10T17:18:41.303Z,6.30
2018-07-10T17:21:11.502Z,5.50
2018-07-10T17:23:41.989Z,5.13
2018-07-10T17:26:12.454Z,5.30
2018-07-10T17:28:43.395Z,4.70
2018-07-10T17:31:13.482Z,4.73
2018-07-10T17:33:43.744Z,5.37
2018-07-10T17:36:13.831Z,5.10
2018-07-10T17:38:44.687Z,5.17
2018-07-10T17:41:15.137Z,4.97
2018-07-10T17:43:45.571Z,6.30
2018-07-10T17:46:15.604Z,4.60
2018-07-10T17:48:46.708Z,5.33
2018-07-10T17:51:16.681Z,5.83
2018-07-10T17:53:47.001Z,5.80
2018-07-10T17:56:17.153Z,4.83
2018-07-10T17:58:47.742Z,4.73
2018-07-10T18:01:17.972Z,4.67
2018-07-10T18:03:48.483Z,4.60
2018-07-10T18:06:19.006Z,3.93
2018-07-10T18:08:49.242Z,4.20
2018-07-10T18:11:19.439Z,4.47
2018-07-10T18:13:49.823Z,4.97
2018-07-10T18:16:20.028Z,4.00
2018-07-10T18:18:50.204Z,4.10
2018-07-10T18:21:20.686Z,4.53
2018-07-10T18:23:51.127Z,3.60
2018-07-10T18:26:21.430Z,3.90
2018-07-10T18:28:51.614Z,4.20
2018-07-10T18:31:22.054Z,4.63
2018-07-10T18:33:52.088Z,4.40
2018-07-10T18:36:22.398Z,4.40
2018-07-10T18:38:52.586Z,5.77
2018-07-10T18:41:22.824Z,4.70
2018-07-10T18:43:52.999Z,5.20
2018-07-10T18:46:23.042Z,6.30
2018-07-10T18:48:53.455Z,6.37
2018-07-10T18:51:24.097Z,5.50
2018-07-10T18:53:54.310Z,5.77
2018-07-10T18:56:25.117Z,6.07
2018-07-10T18:59:12.749Z,5.43
2018-07-10T19:01:52.111Z,5.93
2018-07-10T19:04:25.974Z,5.80
2018-07-10T19:07:01.525Z,5.83
2018-07-10T19:09:34.436Z,5.70
2018-07-10T19:12:09.207Z,5.37
2018-07-10T19:14:39.684Z,5.20
2018-07-10T19:17:12.767Z,6.00
2018-07-10T19:19:47.840Z,6.50
2018-07-10T19:22:18.005Z,5.43
2018-07-10T19:24:48.387Z,5.30
2018-07-10T19:27:29.757Z,28.57
2018-07-10T19:30:06.127Z,6.70
2018-07-10T19:32:36.968Z,8.77
2018-07-10T19:35:07.073Z,6.07
2018-07-10T19:37:38.083Z,6.40
2018-07-10T19:40:08.429Z,8.83
2018-07-10T19:42:40.292Z,7.67
2018-07-10T19:45:11.172Z,6.03
2018-07-10T19:47:41.871Z,6.17
2018-07-10T19:50:17.773Z,5.53
2018-07-10T19:52:55.893Z,7.00
2018-07-10T19:55:28.009Z,7.00
2018-07-10T19:58:06.627Z,8.13
2018-07-10T20:00:43.827Z,8.67
2018-07-10T20:03:27.742Z,9.03
2018-07-10T20:06:02.230Z,8.17
2018-07-10T20:08:32.577Z,8.67
2018-07-10T20:11:06.639Z,7.93
2018-07-10T20:13:47.237Z,8.13
2018-07-10T20:16:53.296Z,7.30
2018-07-10T20:20:07.928Z,8.03
2018-07-10T20:22:48.191Z,10.03
2018-07-10T20:25:33.309Z,8.67
2018-07-10T20:28:11.494Z,8.50
2018-07-10T20:30:55.122Z,7.93
2018-07-10T20:35:37.366Z,8.57
2018-07-10T20:38:07.778Z,9.50
2018-07-10T20:40:40.403Z,9.27
2018-07-10T20:43:13.506Z,9.40
2018-07-10T20:45:45.473Z,9.73
2018-07-10T20:48:23.218Z,10.43
2018-07-10T20:51:05.797Z,9.50
2018-07-10T20:54:08.182Z,7.83
2018-07-10T20:58:54.358Z,10.17
2018-07-10T21:01:30.853Z,16.07
2018-07-10T21:04:06.642Z,9.23
2018-07-10T21:06:45.244Z,7.77
2018-07-10T21:09:15.507Z,11.60
2018-07-10T21:12:24.658Z,10.87
2018-07-10T21:15:03.064Z,9.73
2018-07-10T21:19:40.934Z,10.43
2018-07-10T21:22:51.434Z,12.10
2018-07-10T21:25:36.124Z,13.13
2018-07-10T21:29:16.047Z,12.73
2018-07-10T21:31:56.111Z,10.87
2018-07-10T21:34:37.338Z,9.83
2018-07-10T21:39:17.087Z,8.77
2018-07-10T21:42:04.763Z,12.30
2018-07-10T21:45:13.415Z,10.10
2018-07-10T21:47:57.610Z,9.97
2018-07-10T21:50:34.866Z,10.43
2018-07-10T21:53:04.963Z,10.30
2018-07-10T21:55:35.111Z,10.40
2018-07-10T21:58:05.384Z,10.30
2018-07-10T22:00:46.214Z,10.27
2018-07-10T22:03:16.791Z,10.63
2018-07-10T22:05:47.578Z,9.63
2018-07-10T22:08:17.710Z,9.20
2018-07-10T22:10:48.390Z,9.27
2018-07-10T22:13:18.779Z,9.47
2018-07-10T22:15:49.012Z,8.80
2018-07-10T22:18:19.285Z,8.83
2018-07-10T22:20:49.510Z,8.90
2018-07-10T22:23:20.036Z,9.30
2018-07-10T22:25:50.350Z,8.40
2018-07-10T22:28:20.548Z,7.90
2018-07-10T22:32:57.021Z,8.07
2018-07-10T22:35:27.240Z,9.50
2018-07-10T22:37:57.411Z,8.43
2018-07-10T22:40:27.678Z,9.00
2018-07-10T22:42:58.644Z,8.70
2018-07-10T22:45:28.926Z,8.93
2018-07-10T22:47:59.045Z,9.10
2018-07-10T22:50:29.678Z,9.00
2018-07-10T22:53:01.671Z,9.20
2018-07-10T22:55:33.182Z,9.50
2018-07-10T22:58:08.282Z,9.20
2018-07-10T23:00:39.773Z,8.50
2018-07-10T23:03:21.512Z,9.50
2018-07-10T23:05:52.122Z,9.00
2018-07-10T23:08:34.623Z,8.80
2018-07-10T23:11:05.266Z,8.80
2018-07-10T23:13:38.147Z,9.10
2018-07-10T23:16:07.742Z,9.13
2018-07-10T23:18:37.382Z,8.53
2018-07-10T23:21:07.392Z,8.60
2018-07-10T23:23:37.237Z,8.37
2018-07-10T23:26:06.987Z,8.83
2018-07-10T23:28:36.903Z,8.43
2018-07-10T23:31:06.596Z,9.23
2018-07-10T23:33:36.564Z,8.43
2018-07-10T23:36:06.570Z,8.77
2018-07-10T23:38:40.566Z,8.80
2018-07-10T23:41:18.616Z,9.40
2018-07-10T23:43:49.067Z,9.90
2018-07-10T23:46:25.478Z,9.33
2018-07-10T23:48:58.390Z,9.60
2018-07-10T23:51:28.506Z,8.80
2018-07-10T23:53:58.103Z,8.93
2018-07-10T23:56:27.661Z,8.30
2018-07-10T23:58:58.404Z,8.43
